Time;durP1;ratioP1;P1;durP2;ratioP2;P2;SDS_P1;SDS_P2;PMS_P1;PMS_P2;Temp;Humidity;BMP_temperature;BMP_pressure;BME280_temperature;BME280_humidity;BME280_pressure;Samples;Min_cycle;Max_cycle;Signal;HPM_P1;HPM_P2
2022/03/26 00:01:50;;;;;;;64.20;24.58;;;;;;;7.62;100.00;103048.84;5266440;28;20027;-80
2022/03/26 00:04:20;;;;;;;62.38;23.20;;;;;;;7.63;100.00;103049.69;5265840;28;20051;-78
2022/03/26 00:06:50;;;;;;;63.17;23.48;;;;;;;7.61;100.00;103054.28;5266005;28;20024;-79
2022/03/26 00:09:21;;;;;;;68.85;27.70;;;;;;;7.58;100.00;103065.16;5266188;28;20024;-79
2022/03/26 00:11:51;;;;;;;59.55;22.60;;;;;;;7.56;100.00;103056.38;5265793;28;20053;-79
2022/03/26 00:14:22;;;;;;;60.28;23.58;;;;;;;7.55;100.00;103052.00;5261674;28;20103;-79
2022/03/26 00:16:53;;;;;;;66.82;24.58;;;;;;;7.55;100.00;103054.66;5270267;28;20035;-76
2022/03/26 00:19:23;;;;;;;70.55;24.35;;;;;;;7.53;100.00;103057.44;5272071;28;20507;-77
2022/03/26 00:21:54;;;;;;;62.85;22.65;;;;;;;7.51;100.00;103054.84;5271458;28;20020;-77
2022/03/26 00:24:24;;;;;;;57.55;22.42;;;;;;;7.49;100.00;103056.75;5270093;28;20028;-77
2022/03/26 00:26:55;;;;;;;62.65;22.85;;;;;;;7.49;100.00;103055.91;5270097;28;20084;-76
2022/03/26 00:29:25;;;;;;;57.38;22.08;;;;;;;7.48;100.00;103055.03;5270442;28;20088;-79
2022/03/26 00:31:56;;;;;;;62.45;23.08;;;;;;;7.49;100.00;103050.56;5270199;28;20055;-77
2022/03/26 00:34:26;;;;;;;56.05;23.13;;;;;;;7.50;100.00;103054.94;5269425;28;20449;-78
2022/03/26 00:36:57;;;;;;;58.50;23.52;;;;;;;7.47;100.00;103053.31;5269734;28;20050;-77
2022/03/26 00:39:28;;;;;;;58.42;22.02;;;;;;;7.43;100.00;103051.78;5263860;28;20020;-77
2022/03/26 00:41:58;;;;;;;61.92;21.40;;;;;;;7.41;100.00;103045.66;5262374;28;20387;-77
2022/03/26 00:44:29;;;;;;;58.92;23.67;;;;;;;7.40;100.00;103043.94;5250863;28;20040;-78
2022/03/26 00:46:59;;;;;;;62.92;22.75;;;;;;;7.43;100.00;103050.91;5269917;28;20103;-77
2022/03/26 00:49:30;;;;;;;59.08;22.33;;;;;;;7.43;100.00;103054.47;5269540;28;20035;-78
2022/03/26 00:52:01;;;;;;;57.53;21.20;;;;;;;7.43;100.00;103043.78;5269658;28;20036;-78
2022/03/26 00:54:32;;;;;;;55.97;23.70;;;;;;;7.41;100.00;103043.00;5269312;28;20024;-78
2022/03/26 00:57:03;;;;;;;55.75;22.45;;;;;;;7.40;100.00;103046.63;5269453;28;20056;-78
2022/03/26 00:59:33;;;;;;;58.08;22.02;;;;;;;7.40;100.00;103048.44;5269657;28;20058;-78
2022/03/26 01:02:04;;;;;;;57.97;23.05;;;;;;;7.41;100.00;103040.31;5269118;28;20032;-78
2022/03/26 01:04:35;;;;;;;64.95;22.75;;;;;;;7.41;100.00;103043.00;5269181;28;20008;-78
2022/03/26 01:07:06;;;;;;;55.83;20.85;;;;;;;7.43;100.00;103042.88;5269238;28;20031;-78
2022/03/26 01:09:36;;;;;;;54.88;21.50;;;;;;;7.41;100.00;103040.31;5269203;28;20024;-79
2022/03/26 01:12:07;;;;;;;59.00;22.00;;;;;;;7.37;100.00;103046.78;5269184;28;20028;-78
2022/03/26 01:14:38;;;;;;;58.25;22.25;;;;;;;7.32;100.00;103038.19;5261273;28;20028;-78
2022/03/26 01:17:08;;;;;;;57.30;23.33;;;;;;;7.26;100.00;103036.75;5269495;28;20028;-78
2022/03/26 01:19:39;;;;;;;55.72;22.55;;;;;;;7.22;100.00;103042.38;5269177;28;20024;-78
2022/03/26 01:22:09;;;;;;;54.08;22.38;;;;;;;7.17;100.00;103039.97;5268939;28;20062;-78
2022/03/26 01:24:40;;;;;;;58.22;22.92;;;;;;;7.15;100.00;103035.69;5267792;28;20399;-78
2022/03/26 01:27:10;;;;;;;58.53;20.83;;;;;;;7.11;100.00;103028.81;5268308;28;20024;-78
2022/03/26 01:29:41;;;;;;;56.17;22.45;;;;;;;7.11;100.00;103028.81;5268929;28;20024;-78
2022/03/26 01:32:11;;;;;;;58.60;22.85;;;;;;;7.07;100.00;103036.13;5251043;28;20030;-79
2022/03/26 01:34:42;;;;;;;68.25;21.98;;;;;;;7.04;100.00;103027.47;5250217;28;20399;-78
2022/03/26 01:37:12;;;;;;;60.85;23.15;;;;;;;6.99;100.00;103033.06;5268507;28;20062;-79
2022/03/26 01:39:43;;;;;;;67.63;24.65;;;;;;;6.95;100.00;103036.84;5260516;28;20082;-78
2022/03/26 01:42:14;;;;;;;58.78;22.52;;;;;;;6.87;100.00;103029.28;5263562;28;20031;-78
2022/03/26 01:44:44;;;;;;;70.95;24.92;;;;;;;6.82;100.00;103028.69;5268034;28;20038;-78
2022/03/26 01:47:15;;;;;;;60.33;23.25;;;;;;;6.75;100.00;103032.66;5268467;28;20016;-79
2022/03/26 01:49:45;;;;;;;62.83;23.27;;;;;;;6.68;100.00;103037.50;5268497;28;20050;-78
2022/03/26 01:52:16;;;;;;;61.22;23.30;;;;;;;6.62;100.00;103036.97;5268612;28;20395;-77
2022/03/26 01:54:47;;;;;;;63.80;23.83;;;;;;;6.56;100.00;103024.00;5268170;28;20738;-78
2022/03/26 01:57:17;;;;;;;58.63;23.10;;;;;;;6.50;100.00;103027.88;5268257;28;20048;-78
2022/03/26 01:59:48;;;;;;;77.68;25.88;;;;;;;6.42;100.00;103028.28;5268500;28;20508;-78
2022/03/26 02:02:18;;;;;;;60.47;23.63;;;;;;;6.37;100.00;103019.69;5268128;28;20100;-78
2022/03/26 02:04:49;;;;;;;63.75;22.52;;;;;;;6.33;100.00;103017.31;5268892;28;20020;-77
2022/03/26 02:07:20;;;;;;;59.88;24.00;;;;;;;6.28;100.00;103020.22;5268686;28;20061;-78
2022/03/26 02:10:08;;;;;;;59.03;22.85;;;;;;;6.22;100.00;103018.75;5268418;28;20119;-78
2022/03/26 02:12:39;;;;;;;54.33;22.02;;;;;;;6.17;100.00;103015.47;5268367;28;20028;-77
2022/03/26 02:15:11;;;;;;;60.47;23.02;;;;;;;6.12;100.00;103016.66;5261115;28;20034;-78
2022/03/26 02:17:49;;;;;;;61.38;22.77;;;;;;;6.07;100.00;103011.59;5268358;28;20123;-77
2022/03/26 02:20:22;;;;;;;58.65;22.80;;;;;;;6.04;100.00;103016.25;5267909;28;20103;-77
2022/03/26 02:22:52;;;;;;;61.70;23.38;;;;;;;5.99;100.00;103010.31;5268027;28;20506;-77
2022/03/26 02:25:23;;;;;;;58.88;23.60;;;;;;;5.95;100.00;103012.25;5249199;28;20060;-77
2022/03/26 02:27:54;;;;;;;54.03;21.90;;;;;;;5.92;100.00;103007.09;5268030;28;20020;-77
2022/03/26 02:30:25;;;;;;;58.22;23.33;;;;;;;5.87;100.00;103011.78;5267996;28;20024;-77
2022/03/26 02:32:55;;;;;;;54.95;22.20;;;;;;;5.81;100.00;103010.31;5268095;28;20024;-77
2022/03/26 02:35:26;;;;;;;60.70;21.45;;;;;;;5.73;100.00;103015.22;5267557;28;20035;-77
2022/03/26 02:37:56;;;;;;;60.85;23.10;;;;;;;5.68;100.00;103015.44;5267310;28;20391;-77
2022/03/26 02:40:26;;;;;;;70.40;24.33;;;;;;;5.62;100.00;103022.88;5254327;28;20028;-78
2022/03/26 02:42:58;;;;;;;60.22;23.38;;;;;;;5.62;100.00;103028.22;5268084;28;20034;-77
2022/03/26 02:45:29;;;;;;;59.10;23.42;;;;;;;5.62;100.00;103018.44;5266854;28;20473;-77
2022/03/26 02:48:00;;;;;;;60.58;23.35;;;;;;;5.67;100.00;103020.84;5267475;28;20031;-77
2022/03/26 02:50:31;;;;;;;58.83;23.40;;;;;;;5.69;100.00;103025.16;5267407;28;20031;-77
2022/03/26 02:53:01;;;;;;;61.03;23.50;;;;;;;5.69;100.00;103014.50;5267627;28;20020;-78
2022/03/26 02:55:32;;;;;;;69.93;23.13;;;;;;;5.73;100.00;103025.88;5267465;28;20193;-78
2022/03/26 02:58:04;;;;;;;66.43;24.27;;;;;;;5.78;100.00;103030.94;5267682;28;20479;-80
2022/03/26 03:00:35;;;;;;;66.13;22.90;;;;;;;5.78;100.00;103022.94;5268026;28;20048;-77
2022/03/26 03:03:08;;;;;;;67.75;25.85;;;;;;;5.79;100.00;103019.34;5267941;28;20391;-76
2022/03/26 03:05:39;;;;;;;66.30;24.67;;;;;;;5.78;100.00;103023.81;5267500;28;20030;-76
2022/03/26 03:08:21;;;;;;;64.95;24.33;;;;;;;5.77;100.00;103021.22;5267630;28;20023;-76
2022/03/26 03:10:53;;;;;;;63.42;23.92;;;;;;;5.75;100.00;103025.78;5267740;28;20020;-78
2022/03/26 03:13:24;;;;;;;63.33;23.20;;;;;;;5.71;100.00;103030.38;5268020;28;20035;-77
2022/03/26 03:15:58;;;;;;;61.20;23.63;;;;;;;5.69;100.00;103018.97;5260776;28;20036;-76
2022/03/26 03:18:28;;;;;;;65.80;23.60;;;;;;;5.67;100.00;103026.16;5267582;28;20028;-77
2022/03/26 03:21:00;;;;;;;61.45;24.85;;;;;;;5.65;100.00;103025.41;5267742;28;20034;-78
2022/03/26 03:23:30;;;;;;;67.70;23.92;;;;;;;5.61;100.00;103023.81;5267554;28;20032;-77
2022/03/26 03:26:01;;;;;;;63.55;24.73;;;;;;;5.57;100.00;103027.59;5267151;28;20256;-77
2022/03/26 03:28:31;;;;;;;70.07;24.02;;;;;;;5.54;100.00;103025.09;5267773;28;20075;-76
2022/03/26 03:31:01;;;;;;;69.13;23.88;;;;;;;5.56;100.00;103033.88;5267573;28;20077;-79
2022/03/26 03:33:32;;;;;;;63.30;22.63;;;;;;;5.59;100.00;103023.06;5267190;28;20038;-78
2022/03/26 03:36:03;;;;;;;64.97;27.25;;;;;;;5.62;100.00;103026.44;5266205;28;20372;-77
2022/03/26 03:38:34;;;;;;;65.55;24.25;;;;;;;5.66;100.00;103032.44;5266961;28;20115;-76
2022/03/26 03:41:04;;;;;;;67.47;25.08;;;;;;;5.67;100.00;103031.50;5252968;28;20095;-76
2022/03/26 03:43:35;;;;;;;77.85;25.08;;;;;;;5.66;100.00;103029.78;5266777;28;20471;-77
2022/03/26 03:46:05;;;;;;;66.28;24.75;;;;;;;5.65;100.00;103034.25;5266253;28;20063;-77
2022/03/26 03:48:36;;;;;;;68.97;24.23;;;;;;;5.65;100.00;103041.38;5266274;28;20012;-78
2022/03/26 03:51:07;;;;;;;60.47;23.25;;;;;;;5.62;100.00;103031.75;5266485;28;20035;-76
2022/03/26 03:53:38;;;;;;;63.63;23.08;;;;;;;5.62;100.00;103036.19;5266889;28;20492;-77
2022/03/26 03:56:08;;;;;;;66.35;23.80;;;;;;;5.59;100.00;103031.91;5266282;28;20030;-77
2022/03/26 03:58:39;;;;;;;79.38;24.92;;;;;;;5.58;100.00;103037.31;5266502;28;20024;-76
2022/03/26 04:01:09;;;;;;;70.72;24.83;;;;;;;5.56;100.00;103034.72;5266645;28;20024;-77
2022/03/26 04:03:40;;;;;;;67.75;24.75;;;;;;;5.56;100.00;103040.03;5266850;28;20024;-77
2022/03/26 04:06:10;;;;;;;67.40;26.08;;;;;;;5.55;100.00;103048.97;5266374;28;20391;-77
2022/03/26 04:08:41;;;;;;;66.22;22.95;;;;;;;5.53;100.00;103040.22;5266357;28;20530;-77
2022/03/26 04:11:12;;;;;;;67.95;24.58;;;;;;;5.51;100.00;103046.56;5266300;28;20028;-77
2022/03/26 04:13:42;;;;;;;62.40;23.10;;;;;;;5.47;100.00;103040.53;5266005;28;20464;-76
2022/03/26 04:16:13;;;;;;;64.65;23.30;;;;;;;5.40;100.00;103042.66;5259945;28;20024;-77
2022/03/26 04:18:43;;;;;;;78.10;26.92;;;;;;;5.32;100.00;103039.53;5266415;28;20475;-76
2022/03/26 04:21:14;;;;;;;62.35;24.05;;;;;;;5.25;100.00;103051.41;5266299;28;20016;-76
2022/03/26 04:23:45;;;;;;;67.28;23.83;;;;;;;5.19;100.00;103049.06;5267214;28;20020;-77
2022/03/26 04:26:15;;;;;;;66.25;24.20;;;;;;;5.11;100.00;103051.25;5266169;28;20533;-76
2022/03/26 04:28:46;;;;;;;67.28;24.08;;;;;;;5.05;100.00;103054.22;5266489;28;20369;-76
2022/03/26 04:31:16;;;;;;;73.25;25.10;;;;;;;5.03;100.00;103056.13;5267245;28;20027;-76
2022/03/26 04:33:47;;;;;;;60.83;24.55;;;;;;;5.03;100.00;103059.63;5268003;28;20028;-76
2022/03/26 04:36:17;;;;;;;67.88;23.92;;;;;;;5.06;100.00;103061.25;5266331;28;20024;-77
2022/03/26 04:38:48;;;;;;;67.30;25.00;;;;;;;5.06;100.00;103059.47;5265233;28;20028;-77
2022/03/26 04:41:18;;;;;;;70.60;25.05;;;;;;;5.08;100.00;103065.59;5252927;28;20447;-77
2022/03/26 04:43:49;;;;;;;66.15;24.92;;;;;;;5.08;100.00;103056.75;5265889;28;20053;-77
2022/03/26 04:46:19;;;;;;;68.13;23.95;;;;;;;5.06;100.00;103050.63;5265531;28;20055;-76
2022/03/26 04:48:50;;;;;;;70.85;26.33;;;;;;;5.06;100.00;103053.28;5265803;28;20119;-77
2022/03/26 04:51:20;;;;;;;61.53;23.27;;;;;;;5.04;100.00;103064.00;5265878;28;20431;-77
2022/03/26 04:53:51;;;;;;;79.25;26.20;;;;;;;5.02;100.00;103055.25;5266237;28;20194;-76
2022/03/26 04:56:22;;;;;;;70.68;25.30;;;;;;;4.97;100.00;103057.28;5265855;28;20428;-77
2022/03/26 04:58:54;;;;;;;72.65;25.60;;;;;;;4.97;100.00;103065.25;5265607;28;20056;-77
2022/03/26 05:01:25;;;;;;;70.10;26.25;;;;;;;4.96;100.00;103060.84;5269307;28;20024;-77
2022/03/26 05:03:55;;;;;;;72.45;24.15;;;;;;;4.94;100.00;103057.41;5269394;28;20024;-77
2022/03/26 05:06:26;;;;;;;70.97;25.33;;;;;;;4.92;100.00;103060.16;5269079;28;20110;-76
2022/03/26 05:08:56;;;;;;;65.75;24.25;;;;;;;4.91;100.00;103053.09;5269494;28;20020;-76
2022/03/26 05:11:26;;;;;;;64.03;25.88;;;;;;;4.89;100.00;103054.13;5269938;28;20028;-77
2022/03/26 05:13:57;;;;;;;75.90;24.02;;;;;;;4.89;100.00;103067.44;5266918;28;20034;-78
2022/03/26 05:16:27;;;;;;;68.43;26.20;;;;;;;4.83;100.00;103057.97;5264551;28;20016;-77
2022/03/26 05:18:58;;;;;;;72.47;24.77;;;;;;;4.80;100.00;103060.75;5269187;28;20119;-78
2022/03/26 05:21:28;;;;;;;69.05;24.50;;;;;;;4.77;100.00;103070.66;5269649;28;20107;-77
2022/03/26 05:23:59;;;;;;;66.65;25.50;;;;;;;4.74;100.00;103066.38;5269399;28;20027;-79
2022/03/26 05:26:29;;;;;;;78.47;27.27;;;;;;;4.71;100.00;103061.19;5250367;28;20028;-77
2022/03/26 05:29:00;;;;;;;67.75;25.58;;;;;;;4.67;100.00;103062.31;5269245;28;20035;-77
2022/03/26 05:31:31;;;;;;;87.28;27.08;;;;;;;4.64;100.00;103067.75;5269159;28;20106;-78
2022/03/26 05:34:02;;;;;;;81.50;26.17;;;;;;;4.59;100.00;103069.78;5268998;28;20027;-78
2022/03/26 05:36:32;;;;;;;67.00;25.60;;;;;;;4.60;100.00;103076.81;5268897;28;20526;-77
2022/03/26 05:39:02;;;;;;;77.80;25.42;;;;;;;4.61;100.00;103075.88;5248094;28;20027;-77
2022/03/26 05:41:33;;;;;;;73.00;25.10;;;;;;;4.65;100.00;103069.47;5257950;28;20020;-77
2022/03/26 05:44:04;;;;;;;71.88;26.08;;;;;;;4.71;100.00;103073.63;5250635;28;20502;-77
2022/03/26 05:46:34;;;;;;;65.55;25.33;;;;;;;4.75;100.00;103084.03;5269365;28;20024;-80
2022/03/26 05:49:05;;;;;;;70.65;28.17;;;;;;;4.80;100.00;103079.38;5269276;28;20024;-77
2022/03/26 05:51:36;;;;;;;76.45;26.98;;;;;;;4.86;100.00;103080.88;5268752;28;20031;-75
2022/03/26 05:54:06;;;;;;;76.57;26.70;;;;;;;4.91;100.00;103089.47;5268364;28;20502;-75
2022/03/26 05:56:37;;;;;;;75.80;27.33;;;;;;;4.96;100.00;103087.47;5268750;28;20027;-76
2022/03/26 05:59:10;;;;;;;79.75;27.33;;;;;;;5.02;100.00;103088.94;5268613;28;20024;-74
2022/03/26 06:01:40;;;;;;;77.05;28.45;;;;;;;5.05;100.00;103092.34;5268343;28;20023;-76
2022/03/26 06:04:11;;;;;;;86.57;27.63;;;;;;;5.09;100.00;103096.56;5249685;28;20534;-77
2022/03/26 06:06:42;;;;;;;83.07;30.30;;;;;;;5.14;100.00;103093.69;5269188;28;20024;-77
2022/03/26 06:09:12;;;;;;;77.68;27.38;;;;;;;5.19;100.00;103096.97;5268570;28;20123;-75
2022/03/26 06:11:43;;;;;;;77.45;27.75;;;;;;;5.27;100.00;103100.13;5267266;28;20024;-74
2022/03/26 06:14:13;;;;;;;76.43;28.30;;;;;;;5.40;100.00;103108.34;5263635;28;20052;-79
2022/03/26 06:16:45;;;;;;;74.22;27.13;;;;;;;5.57;100.00;103104.81;5266738;28;20027;-75
2022/03/26 06:19:16;;;;;;;77.20;28.40;;;;;;;5.81;100.00;103102.69;5268055;28;20055;-75
2022/03/26 06:21:46;;;;;;;71.28;28.10;;;;;;;6.09;100.00;103110.13;5250231;28;20032;-76
2022/03/26 06:24:17;;;;;;;72.18;27.48;;;;;;;6.35;100.00;103109.56;5268154;28;20028;-76
2022/03/26 06:26:48;;;;;;;67.45;26.40;;;;;;;6.65;100.00;103109.69;5268416;28;20114;-75
2022/03/26 06:29:18;;;;;;;63.33;26.40;;;;;;;6.98;100.00;103112.28;5249899;28;20047;-75
2022/03/26 06:31:50;;;;;;;69.28;27.23;;;;;;;7.26;100.00;103119.53;5268493;28;20424;-75
2022/03/26 06:34:23;;;;;;;70.15;27.73;;;;;;;7.57;100.00;103117.72;5267394;28;20032;-76
2022/03/26 06:36:55;;;;;;;69.28;27.30;;;;;;;7.86;100.00;103115.97;5268085;28;20075;-74
2022/03/26 06:39:25;;;;;;;72.35;27.90;;;;;;;8.16;100.00;103121.25;5243609;28;20044;-75
2022/03/26 06:41:56;;;;;;;72.38;28.25;;;;;;;8.43;100.00;103113.31;5259996;28;20016;-75
2022/03/26 06:44:27;;;;;;;69.18;26.20;;;;;;;8.71;100.00;103115.13;5267098;28;20115;-76
2022/03/26 06:46:57;;;;;;;67.45;27.42;;;;;;;9.06;100.00;103114.63;5267535;28;20054;-76
2022/03/26 06:49:30;;;;;;;61.90;27.73;;;;;;;9.34;100.00;103119.03;5267558;28;20433;-76
2022/03/26 06:52:00;;;;;;;55.28;25.92;;;;;;;9.60;100.00;103123.47;5267598;28;20116;-76
2022/03/26 06:54:31;;;;;;;73.30;27.17;;;;;;;9.76;100.00;103120.59;5266924;28;20513;-75
2022/03/26 06:57:02;;;;;;;68.68;26.88;;;;;;;10.02;100.00;103126.81;5267489;28;20031;-75
2022/03/26 06:59:32;;;;;;;69.65;28.08;;;;;;;10.30;100.00;103128.47;5267355;28;20020;-76
2022/03/26 07:02:03;;;;;;;63.67;28.60;;;;;;;10.57;100.00;103131.00;5267174;28;20119;-76
2022/03/26 07:04:33;;;;;;;59.60;26.73;;;;;;;10.80;100.00;103136.53;5266815;28;20028;-78
2022/03/26 07:07:05;;;;;;;74.43;30.00;;;;;;;11.04;100.00;103134.69;5267179;28;20043;-75
2022/03/26 07:09:36;;;;;;;63.25;28.38;;;;;;;11.28;100.00;103140.09;5267038;28;20032;-75
2022/03/26 07:12:07;;;;;;;62.75;27.85;;;;;;;11.47;100.00;103144.06;5243907;28;20028;-76
2022/03/26 07:14:38;;;;;;;57.13;27.90;;;;;;;11.51;100.00;103142.88;5245433;28;20029;-76
2022/03/26 07:17:08;;;;;;;72.97;28.80;;;;;;;11.58;100.00;103149.50;5265666;28;20505;-76
2022/03/26 07:19:39;;;;;;;58.50;27.95;;;;;;;11.73;100.00;103153.69;5252358;28;20431;-77
2022/03/26 07:22:09;;;;;;;62.20;28.30;;;;;;;11.94;100.00;103161.97;5265390;28;20051;-76
2022/03/26 07:24:40;;;;;;;70.85;30.08;;;;;;;12.13;100.00;103167.63;5233134;28;20383;-75
2022/03/26 07:27:11;;;;;;;62.40;27.13;;;;;;;12.23;100.00;103167.78;5265631;28;20028;-76
2022/03/26 07:29:41;;;;;;;65.53;27.67;;;;;;;12.26;100.00;103162.16;5261356;28;20443;-78
2022/03/26 07:32:12;;;;;;;57.35;27.20;;;;;;;12.45;100.00;103169.63;5256472;28;20153;-78
2022/03/26 07:34:42;;;;;;;57.30;27.63;;;;;;;12.56;100.00;103169.63;5252249;28;20054;-76
2022/03/26 07:37:13;;;;;;;63.13;28.92;;;;;;;12.62;100.00;103174.50;5265416;28;20020;-76
2022/03/26 07:39:43;;;;;;;63.42;28.10;;;;;;;12.60;100.00;103168.41;5257189;28;20713;-77
2022/03/26 07:42:14;;;;;;;58.13;27.98;;;;;;;12.67;100.00;103176.84;5259958;28;20031;-77
2022/03/26 07:44:44;;;;;;;61.97;27.10;;;;;;;12.57;100.00;103175.88;5256040;28;20169;-77
2022/03/26 07:47:15;;;;;;;68.88;27.70;;;;;;;12.63;100.00;103176.22;5258287;28;20028;-77
2022/03/26 07:49:46;;;;;;;66.93;27.08;;;;;;;12.75;100.00;103179.78;5254796;28;20509;-76
2022/03/26 07:52:17;;;;;;;50.80;26.90;;;;;;;12.95;100.00;103179.03;5247334;28;20035;-77
2022/03/26 07:54:48;;;;;;;61.35;28.35;;;;;;;13.26;100.00;103173.84;5247075;28;20024;-76
2022/03/26 07:57:19;;;;;;;58.15;27.38;;;;;;;13.40;100.00;103176.25;5264830;28;20048;-76
2022/03/26 07:59:49;;;;;;;56.47;27.42;;;;;;;13.62;100.00;103175.28;5264946;28;20594;-77
2022/03/26 08:02:20;;;;;;;55.30;29.13;;;;;;;13.46;100.00;103172.16;5246921;28;20055;-77
2022/03/26 08:04:50;;;;;;;57.65;27.67;;;;;;;13.65;100.00;103179.53;5264429;28;20426;-76
2022/03/26 08:07:21;;;;;;;59.78;27.00;;;;;;;13.73;100.00;103174.38;5256340;28;20028;-77
2022/03/26 08:09:51;;;;;;;56.90;27.13;;;;;;;13.88;100.00;103185.69;5242068;28;20028;-77
2022/03/26 08:12:22;;;;;;;59.63;27.98;;;;;;;14.00;100.00;103185.47;5264862;28;20103;-77
2022/03/26 08:14:52;;;;;;;60.42;28.10;;;;;;;14.22;100.00;103187.19;5233123;28;20092;-77
2022/03/26 08:17:24;;;;;;;66.47;29.23;;;;;;;14.34;100.00;103190.66;5264813;28;20587;-77
2022/03/26 08:19:55;;;;;;;54.65;28.20;;;;;;;14.37;100.00;103192.25;5241491;28;20036;-77
2022/03/26 08:22:25;;;;;;;60.45;27.98;;;;;;;14.28;100.00;103193.06;5238590;28;20391;-77
2022/03/26 08:24:56;;;;;;;56.85;28.33;;;;;;;14.28;100.00;103195.75;5264547;28;20028;-77
2022/03/26 08:27:27;;;;;;;64.57;29.70;;;;;;;14.39;100.00;103191.09;5264505;28;20019;-77
2022/03/26 08:29:57;;;;;;;59.75;27.30;;;;;;;14.57;100.00;103199.50;5264508;28;20484;-78
2022/03/26 08:32:27;;;;;;;61.92;28.85;;;;;;;14.69;100.00;103198.38;5264958;28;20024;-77
2022/03/26 08:34:58;;;;;;;62.30;29.30;;;;;;;14.95;100.00;103208.72;5248092;28;20257;-77
2022/03/26 08:37:29;;;;;;;65.80;29.58;;;;;;;15.35;100.00;103205.09;5237107;28;20438;-77
2022/03/26 08:39:59;;;;;;;66.03;29.13;;;;;;;15.68;100.00;103207.44;5258217;28;20020;-77
2022/03/26 08:42:30;;;;;;;55.22;27.63;;;;;;;15.80;100.00;103206.28;5230697;28;20126;-77
2022/03/26 08:45:00;;;;;;;67.68;30.10;;;;;;;15.68;100.00;103201.19;5268346;28;20462;-77
2022/03/26 08:47:31;;;;;;;57.35;29.00;;;;;;;15.86;100.00;103209.41;5250229;28;20757;-77
2022/03/26 08:50:02;;;;;;;60.80;29.17;;;;;;;16.02;98.70;103207.84;5268457;28;20024;-77
2022/03/26 08:52:34;;;;;;;63.67;29.98;;;;;;;16.23;96.59;103204.94;5268470;28;20506;-77
2022/03/26 08:55:05;;;;;;;62.85;29.60;;;;;;;16.46;95.55;103210.00;5254770;28;20059;-77
2022/03/26 08:57:35;;;;;;;63.72;30.13;;;;;;;16.42;95.89;103208.63;5268256;28;20032;-78
2022/03/26 09:00:07;;;;;;;64.60;30.15;;;;;;;16.41;92.02;103198.75;5236448;28;20035;-78
2022/03/26 09:02:39;;;;;;;62.00;30.45;;;;;;;16.68;92.35;103206.09;5251062;28;20028;-77
2022/03/26 09:05:09;;;;;;;56.97;28.75;;;;;;;16.94;93.06;103200.84;5264655;28;20475;-79
2022/03/26 09:07:40;;;;;;;65.13;28.73;;;;;;;16.83;90.01;103200.03;5260471;28;20016;-79
2022/03/26 09:10:11;;;;;;;60.97;29.65;;;;;;;17.02;88.38;103201.81;5263483;28;20032;-79
2022/03/26 09:12:42;;;;;;;56.58;28.52;;;;;;;17.04;87.77;103201.63;5275656;28;20058;-79
2022/03/26 09:15:14;;;;;;;57.50;29.23;;;;;;;16.88;90.78;103202.31;5261634;28;20043;-79
2022/03/26 09:17:44;;;;;;;61.80;28.48;;;;;;;16.78;86.41;103205.06;5268083;28;20016;-79
2022/03/26 09:20:15;;;;;;;59.83;29.00;;;;;;;17.03;85.04;103195.38;5251734;28;20040;-77
2022/03/26 09:22:45;;;;;;;59.67;28.85;;;;;;;17.35;89.85;103196.72;5274305;28;20019;-78
2022/03/26 09:25:17;;;;;;;57.47;29.15;;;;;;;17.79;86.09;103186.81;5272476;28;20024;-78
2022/03/26 09:27:49;;;;;;;54.63;28.67;;;;;;;18.10;85.41;103192.66;5254495;28;20586;-78
2022/03/26 09:30:19;;;;;;;60.72;29.08;;;;;;;18.15;84.56;103199.47;5249932;28;20111;-79
2022/03/26 09:32:50;;;;;;;63.80;29.92;;;;;;;17.79;79.43;103184.09;5270294;28;20107;-79
2022/03/26 09:35:20;;;;;;;61.15;30.17;;;;;;;17.88;79.40;103186.88;5269189;28;20032;-79
2022/03/26 09:37:51;;;;;;;64.22;31.10;;;;;;;18.08;81.52;103178.38;5233815;28;20059;-78
2022/03/26 09:40:23;;;;;;;59.85;29.58;;;;;;;18.46;81.36;103178.94;5252834;28;20483;-77
2022/03/26 09:42:54;;;;;;;60.67;29.35;;;;;;;18.79;79.26;103181.84;5275189;28;20735;-78
2022/03/26 09:45:25;;;;;;;56.30;28.98;;;;;;;18.66;76.80;103182.25;5256608;28;20044;-78
2022/03/26 09:47:56;;;;;;;63.22;30.70;;;;;;;18.08;76.45;103180.25;5268630;28;20024;-78
2022/03/26 09:50:26;;;;;;;65.82;29.58;;;;;;;18.16;78.98;103165.84;5268854;28;20035;-79
2022/03/26 09:52:57;;;;;;;63.30;29.70;;;;;;;18.22;77.17;103178.78;5251161;28;20024;-79
2022/03/26 09:55:29;;;;;;;60.25;29.65;;;;;;;18.68;81.32;103172.13;5268199;28;20024;-79
2022/03/26 09:58:00;;;;;;;63.25;30.25;;;;;;;18.84;77.53;103180.34;5268874;28;20074;-78
2022/03/26 10:00:30;;;;;;;62.72;31.33;;;;;;;18.72;74.68;103178.91;5271958;28;20036;-78
2022/03/26 10:03:01;;;;;;;61.67;30.15;;;;;;;18.60;74.00;103191.06;5271950;28;20034;-80
2022/03/26 10:05:33;;;;;;;58.83;29.80;;;;;;;18.64;75.30;103176.13;5257998;28;20024;-81
2022/03/26 10:08:22;;;;;;;65.90;30.50;;;;;;;18.64;73.87;103184.28;5238749;28;20055;-79
2022/03/26 10:10:52;;;;;;;62.88;28.60;;;;;;;18.82;75.65;103176.91;5259323;28;20024;-79
2022/03/26 10:13:37;;;;;;;70.75;30.33;;;;;;;18.82;72.95;103181.50;5267012;28;20415;-80
2022/03/26 10:16:10;;;;;;;70.82;31.85;;;;;;;18.54;72.17;103181.69;5247849;28;20020;-80
2022/03/26 10:18:43;;;;;;;67.07;31.42;;;;;;;18.54;75.76;103167.25;5268606;28;20023;-79
2022/03/26 10:21:16;;;;;;;70.05;29.95;;;;;;;18.59;72.37;103173.91;5267723;28;20036;-79
2022/03/26 10:23:49;;;;;;;70.47;31.10;;;;;;;18.25;72.10;103170.31;5250579;28;20509;-79
2022/03/26 10:26:22;;;;;;;62.25;31.70;;;;;;;18.47;75.87;103163.47;5266904;28;20027;-79
2022/03/26 10:28:55;;;;;;;70.55;31.95;;;;;;;18.24;71.66;103171.34;5233512;28;20440;-80
2022/03/26 10:34:19;;;;;;;77.25;31.55;;;;;;;18.38;73.87;103163.44;5267424;28;20054;-79
2022/03/26 10:37:09;;;;;;;63.47;29.58;;;;;;;18.37;72.30;103163.59;5249596;28;20031;-78
2022/03/26 10:39:39;;;;;;;72.70;31.63;;;;;;;18.27;71.50;103161.00;5242676;28;20040;-79
2022/03/26 10:42:12;;;;;;;69.68;31.25;;;;;;;18.36;70.87;103156.47;5247933;28;20024;-79
2022/03/26 10:44:48;;;;;;;61.45;29.95;;;;;;;18.23;68.89;103161.50;5258803;28;20036;-79
2022/03/26 10:47:18;;;;;;;;;;;;;;;18.46;72.04;103149.03;5260404;28;20110;-79
2022/03/26 10:49:49;;;;;;;62.97;29.23;;;;;;;18.62;69.65;103149.13;5239470;28;19951;-78
2022/03/26 10:52:20;;;;;;;72.10;31.60;;;;;;;18.90;74.01;103157.06;5268674;28;20139;-78
2022/03/26 10:54:50;;;;;;;67.30;31.58;;;;;;;19.05;73.10;103152.69;5249352;28;20039;-79
2022/03/26 10:57:24;;;;;;;65.05;29.63;;;;;;;19.05;72.77;103143.66;5267487;28;20399;-79
2022/03/26 10:59:55;;;;;;;69.05;31.70;;;;;;;19.19;70.25;103145.75;5268567;28;20458;-79
2022/03/26 11:02:26;;;;;;;62.38;29.85;;;;;;;19.37;70.78;103146.41;5251130;28;20055;-79
2022/03/26 11:04:57;;;;;;;65.88;30.63;;;;;;;19.54;70.76;103144.56;5248362;28;20112;-80
2022/03/26 11:07:28;;;;;;;63.35;29.42;;;;;;;19.45;68.65;103148.31;5254931;28;20030;-80
2022/03/26 11:10:03;;;;;;;67.85;31.25;;;;;;;19.10;68.50;103144.88;5267595;28;20032;-80
2022/03/26 11:12:36;;;;;;;62.53;30.52;;;;;;;19.10;68.03;103139.44;5267194;28;20035;-80
2022/03/26 11:15:11;;;;;;;60.88;28.88;;;;;;;19.14;67.02;103145.41;5258529;28;20498;-80
2022/03/26 11:18:08;;;;;;;63.88;28.05;;;;;;;19.04;66.38;103139.25;5267158;28;20039;-80
2022/03/26 11:21:09;;;;;;;58.92;27.65;;;;;;;19.05;66.29;103133.63;5267153;28;20034;-79
2022/03/26 11:24:18;;;;;;;63.17;28.45;;;;;;;19.23;67.42;103130.78;5242413;28;20028;-80
2022/03/26 11:27:26;;;;;;;60.40;27.88;;;;;;;19.44;64.14;103134.88;5224145;28;20016;-80
2022/03/26 11:30:15;;;;;;;60.22;28.15;;;;;;;19.57;65.24;103127.03;5262074;28;20028;-80
2022/03/26 11:32:49;;;;;;;64.55;27.35;;;;;;;19.55;64.59;103129.94;5229478;28;20433;-78